sensor_id;sensor_type;location;lat;lon;timestamp;P1;durP1;ratioP1;P2;durP2;ratioP2
7989;SDS011;4040;42.848;23.034;2023-07-02T00:08:54;10.15;;;4.20;;
7989;SDS011;4040;42.848;23.034;2023-07-02T00:14:43;6.18;;;3.92;;
7989;SDS011;4040;42.848;23.034;2023-07-02T00:20:32;7.63;;;4.10;;
7989;SDS011;4040;42.848;23.034;2023-07-02T00:26:25;8.38;;;3.80;;
7989;SDS011;4040;42.848;23.034;2023-07-02T00:32:15;10.68;;;4.40;;
7989;SDS011;4040;42.848;23.034;2023-07-02T00:38:04;6.13;;;3.80;;
7989;SDS011;4040;42.848;23.034;2023-07-02T00:43:54;7.93;;;4.40;;
7989;SDS011;4040;42.848;23.034;2023-07-02T00:49:42;6.88;;;4.28;;
7989;SDS011;4040;42.848;23.034;2023-07-02T00:55:31;6.95;;;4.15;;
7989;SDS011;4040;42.848;23.034;2023-07-02T01:01:22;6.90;;;4.13;;
7989;SDS011;4040;42.848;23.034;2023-07-02T01:11:13;10.40;;;4.68;;
7989;SDS011;4040;42.848;23.034;2023-07-02T01:17:04;10.82;;;5.10;;
7989;SDS011;4040;42.848;23.034;2023-07-02T01:22:55;6.95;;;4.70;;
7989;SDS011;4040;42.848;23.034;2023-07-02T01:28:49;7.63;;;4.13;;
7989;SDS011;4040;42.848;23.034;2023-07-02T01:34:38;6.85;;;4.13;;
7989;SDS011;4040;42.848;23.034;2023-07-02T01:40:28;8.68;;;4.63;;
7989;SDS011;4040;42.848;23.034;2023-07-02T01:46:17;7.88;;;4.15;;
7989;SDS011;4040;42.848;23.034;2023-07-02T01:52:05;7.20;;;4.15;;
7989;SDS011;4040;42.848;23.034;2023-07-02T01:57:56;6.55;;;4.40;;
7989;SDS011;4040;42.848;23.034;2023-07-02T02:03:44;9.63;;;4.68;;
7989;SDS011;4040;42.848;23.034;2023-07-02T02:13:56;6.55;;;4.50;;
7989;SDS011;4040;42.848;23.034;2023-07-02T02:19:45;6.43;;;4.53;;
7989;SDS011;4040;42.848;23.034;2023-07-02T02:25:34;7.45;;;4.40;;
7989;SDS011;4040;42.848;23.034;2023-07-02T02:31:24;17.23;;;5.32;;
7989;SDS011;4040;42.848;23.034;2023-07-02T02:37:13;9.07;;;4.72;;
7989;SDS011;4040;42.848;23.034;2023-07-02T02:43:02;11.75;;;5.32;;
7989;SDS011;4040;42.848;23.034;2023-07-02T02:48:52;8.73;;;5.20;;
7989;SDS011;4040;42.848;23.034;2023-07-02T02:54:41;10.40;;;5.32;;
7989;SDS011;4040;42.848;23.034;2023-07-02T03:00:30;11.02;;;5.65;;
7989;SDS011;4040;42.848;23.034;2023-07-02T03:06:20;10.30;;;4.88;;
7989;SDS011;4040;42.848;23.034;2023-07-02T03:16:30;10.10;;;5.25;;
7989;SDS011;4040;42.848;23.034;2023-07-02T03:22:21;12.25;;;5.38;;
7989;SDS011;4040;42.848;23.034;2023-07-02T03:28:10;11.02;;;4.80;;
7989;SDS011;4040;42.848;23.034;2023-07-02T03:34:01;9.95;;;4.90;;
7989;SDS011;4040;42.848;23.034;2023-07-02T03:39:52;8.65;;;5.30;;
7989;SDS011;4040;42.848;23.034;2023-07-02T03:45:41;8.25;;;5.50;;
7989;SDS011;4040;42.848;23.034;2023-07-02T03:51:30;7.68;;;4.72;;
7989;SDS011;4040;42.848;23.034;2023-07-02T03:57:20;8.98;;;4.93;;
7989;SDS011;4040;42.848;23.034;2023-07-02T04:03:09;7.28;;;4.40;;
7989;SDS011;4040;42.848;23.034;2023-07-02T04:08:58;7.00;;;4.60;;
7989;SDS011;4040;42.848;23.034;2023-07-02T04:19:10;10.82;;;4.40;;
7989;SDS011;4040;42.848;23.034;2023-07-02T04:24:59;6.47;;;4.40;;
7989;SDS011;4040;42.848;23.034;2023-07-02T04:30:48;6.93;;;4.53;;
7989;SDS011;4040;42.848;23.034;2023-07-02T04:36:40;6.22;;;4.07;;
7989;SDS011;4040;42.848;23.034;2023-07-02T04:42:28;6.43;;;3.65;;
7989;SDS011;4040;42.848;23.034;2023-07-02T04:48:21;7.28;;;4.40;;
7989;SDS011;4040;42.848;23.034;2023-07-02T04:54:12;7.63;;;4.18;;
7989;SDS011;4040;42.848;23.034;2023-07-02T05:00:01;6.35;;;4.18;;
7989;SDS011;4040;42.848;23.034;2023-07-02T05:05:52;9.25;;;5.13;;
7989;SDS011;4040;42.848;23.034;2023-07-02T05:11:43;6.18;;;4.20;;
7989;SDS011;4040;42.848;23.034;2023-07-02T05:21:54;7.05;;;4.07;;
7989;SDS011;4040;42.848;23.034;2023-07-02T05:27:44;6.60;;;3.90;;
7989;SDS011;4040;42.848;23.034;2023-07-02T05:33:33;3.88;;;3.20;;
7989;SDS011;4040;42.848;23.034;2023-07-02T05:39:21;6.03;;;3.75;;
7989;SDS011;4040;42.848;23.034;2023-07-02T05:45:12;9.32;;;4.28;;
7989;SDS011;4040;42.848;23.034;2023-07-02T05:51:01;6.53;;;3.78;;
7989;SDS011;4040;42.848;23.034;2023-07-02T05:56:50;5.90;;;3.75;;
7989;SDS011;4040;42.848;23.034;2023-07-02T06:02:40;4.65;;;3.22;;
7989;SDS011;4040;42.848;23.034;2023-07-02T06:08:29;5.40;;;3.50;;
7989;SDS011;4040;42.848;23.034;2023-07-02T06:14:17;4.55;;;3.13;;
7989;SDS011;4040;42.848;23.034;2023-07-02T06:24:30;4.82;;;3.55;;
7989;SDS011;4040;42.848;23.034;2023-07-02T06:30:19;4.80;;;3.38;;
7989;SDS011;4040;42.848;23.034;2023-07-02T06:36:08;6.35;;;3.60;;
7989;SDS011;4040;42.848;23.034;2023-07-02T06:41:59;4.50;;;3.67;;
7989;SDS011;4040;42.848;23.034;2023-07-02T06:47:49;4.18;;;3.25;;
7989;SDS011;4040;42.848;23.034;2023-07-02T06:53:38;5.18;;;3.67;;
7989;SDS011;4040;42.848;23.034;2023-07-02T06:59:29;4.90;;;3.70;;
7989;SDS011;4040;42.848;23.034;2023-07-02T07:05:17;4.78;;;3.40;;
7989;SDS011;4040;42.848;23.034;2023-07-02T07:11:07;4.07;;;2.88;;
7989;SDS011;4040;42.848;23.034;2023-07-02T07:16:57;4.65;;;3.35;;
7989;SDS011;4040;42.848;23.034;2023-07-02T07:27:07;4.05;;;3.00;;
7989;SDS011;4040;42.848;23.034;2023-07-02T07:32:58;5.18;;;3.50;;
7989;SDS011;4040;42.848;23.034;2023-07-02T07:38:47;4.20;;;3.05;;
7989;SDS011;4040;42.848;23.034;2023-07-02T07:44:36;4.50;;;3.08;;
7989;SDS011;4040;42.848;23.034;2023-07-02T07:50:26;4.50;;;3.53;;
7989;SDS011;4040;42.848;23.034;2023-07-02T07:56:15;3.95;;;3.13;;
7989;SDS011;4040;42.848;23.034;2023-07-02T08:02:04;4.25;;;3.15;;
7989;SDS011;4040;42.848;23.034;2023-07-02T08:07:55;6.50;;;3.10;;
7989;SDS011;4040;42.848;23.034;2023-07-02T08:13:44;3.22;;;2.83;;
7989;SDS011;4040;42.848;23.034;2023-07-02T08:19:33;4.22;;;3.10;;
7989;SDS011;4040;42.848;23.034;2023-07-02T08:29:47;5.38;;;3.72;;
7989;SDS011;4040;42.848;23.034;2023-07-02T08:35:36;4.90;;;3.28;;
7989;SDS011;4040;42.848;23.034;2023-07-02T08:41:24;6.00;;;3.13;;
7989;SDS011;4040;42.848;23.034;2023-07-02T08:47:15;4.03;;;2.67;;
7989;SDS011;4040;42.848;23.034;2023-07-02T08:53:03;3.67;;;2.80;;
7989;SDS011;4040;42.848;23.034;2023-07-02T08:58:52;10.95;;;6.07;;
7989;SDS011;4040;42.848;23.034;2023-07-02T09:04:43;3.85;;;2.90;;
7989;SDS011;4040;42.848;23.034;2023-07-02T09:10:31;4.60;;;2.70;;
7989;SDS011;4040;42.848;23.034;2023-07-02T09:16:21;2.63;;;2.42;;
7989;SDS011;4040;42.848;23.034;2023-07-02T09:22:13;3.83;;;3.03;;
7989;SDS011;4040;42.848;23.034;2023-07-02T09:32:25;4.50;;;3.40;;
7989;SDS011;4040;42.848;23.034;2023-07-02T09:38:16;3.90;;;2.83;;
7989;SDS011;4040;42.848;23.034;2023-07-02T09:44:05;3.05;;;2.42;;
7989;SDS011;4040;42.848;23.034;2023-07-02T09:49:57;4.20;;;3.50;;
7989;SDS011;4040;42.848;23.034;2023-07-02T09:55:53;4.03;;;3.28;;
7989;SDS011;4040;42.848;23.034;2023-07-02T10:01:42;3.80;;;2.92;;
7989;SDS011;4040;42.848;23.034;2023-07-02T10:07:32;4.25;;;3.42;;
7989;SDS011;4040;42.848;23.034;2023-07-02T10:13:32;4.15;;;3.40;;
7989;SDS011;4040;42.848;23.034;2023-07-02T10:19:21;5.30;;;3.28;;
7989;SDS011;4040;42.848;23.034;2023-07-02T10:25:10;3.65;;;3.33;;
7989;SDS011;4040;42.848;23.034;2023-07-02T10:35:22;4.78;;;3.65;;
7989;SDS011;4040;42.848;23.034;2023-07-02T10:41:12;25.20;;;14.57;;
7989;SDS011;4040;42.848;23.034;2023-07-02T10:47:11;10.80;;;5.47;;
7989;SDS011;4040;42.848;23.034;2023-07-02T10:53:02;16.98;;;10.00;;
7989;SDS011;4040;42.848;23.034;2023-07-02T10:58:51;10.13;;;4.82;;
7989;SDS011;4040;42.848;23.034;2023-07-02T11:04:40;39.78;;;17.98;;
7989;SDS011;4040;42.848;23.034;2023-07-02T11:10:31;9.82;;;6.15;;
7989;SDS011;4040;42.848;23.034;2023-07-02T11:16:20;7.80;;;5.68;;
7989;SDS011;4040;42.848;23.034;2023-07-02T11:22:12;6.45;;;3.92;;
7989;SDS011;4040;42.848;23.034;2023-07-02T11:28:03;7.68;;;3.42;;
7989;SDS011;4040;42.848;23.034;2023-07-02T11:38:14;4.75;;;3.28;;
7989;SDS011;4040;42.848;23.034;2023-07-02T11:44:05;5.10;;;3.40;;
7989;SDS011;4040;42.848;23.034;2023-07-02T11:49:54;7.07;;;4.63;;
7989;SDS011;4040;42.848;23.034;2023-07-02T11:55:43;5.22;;;3.83;;
7989;SDS011;4040;42.848;23.034;2023-07-02T12:01:33;5.40;;;3.53;;
7989;SDS011;4040;42.848;23.034;2023-07-02T12:07:22;5.70;;;3.53;;
7989;SDS011;4040;42.848;23.034;2023-07-02T12:13:11;8.40;;;5.05;;
7989;SDS011;4040;42.848;23.034;2023-07-02T12:19:02;7.03;;;4.20;;
7989;SDS011;4040;42.848;23.034;2023-07-02T12:24:50;5.38;;;3.90;;
7989;SDS011;4040;42.848;23.034;2023-07-02T12:30:40;4.93;;;3.65;;
7989;SDS011;4040;42.848;23.034;2023-07-02T12:40:52;4.22;;;3.28;;
7989;SDS011;4040;42.848;23.034;2023-07-02T12:46:41;18.85;;;11.63;;
7989;SDS011;4040;42.848;23.034;2023-07-02T12:52:30;19.33;;;12.35;;
7989;SDS011;4040;42.848;23.034;2023-07-02T12:58:20;10.50;;;6.63;;
7989;SDS011;4040;42.848;23.034;2023-07-02T13:04:09;9.65;;;6.63;;
7989;SDS011;4040;42.848;23.034;2023-07-02T13:09:58;8.15;;;5.45;;
7989;SDS011;4040;42.848;23.034;2023-07-02T13:15:48;4.53;;;3.55;;
7989;SDS011;4040;42.848;23.034;2023-07-02T13:21:36;10.45;;;4.70;;
7989;SDS011;4040;42.848;23.034;2023-07-02T13:27:25;5.07;;;3.92;;
7989;SDS011;4040;42.848;23.034;2023-07-02T13:33:16;7.00;;;4.88;;
7989;SDS011;4040;42.848;23.034;2023-07-02T13:43:26;6.35;;;4.43;;
7989;SDS011;4040;42.848;23.034;2023-07-02T13:49:17;9.05;;;4.60;;
7989;SDS011;4040;42.848;23.034;2023-07-02T13:55:05;7.30;;;5.13;;
7989;SDS011;4040;42.848;23.034;2023-07-02T14:00:56;9.10;;;5.40;;
7989;SDS011;4040;42.848;23.034;2023-07-02T14:06:45;7.10;;;5.07;;
7989;SDS011;4040;42.848;23.034;2023-07-02T14:12:34;8.52;;;5.60;;
7989;SDS011;4040;42.848;23.034;2023-07-02T14:18:24;9.07;;;5.65;;
7989;SDS011;4040;42.848;23.034;2023-07-02T14:24:13;9.13;;;5.03;;
7989;SDS011;4040;42.848;23.034;2023-07-02T14:30:02;6.38;;;4.63;;
7989;SDS011;4040;42.848;23.034;2023-07-02T14:35:56;5.38;;;4.40;;
7989;SDS011;4040;42.848;23.034;2023-07-02T14:46:06;6.13;;;4.40;;
7989;SDS011;4040;42.848;23.034;2023-07-02T14:51:56;5.75;;;4.60;;
7989;SDS011;4040;42.848;23.034;2023-07-02T14:57:45;6.18;;;4.43;;
7989;SDS011;4040;42.848;23.034;2023-07-02T15:03:34;5.55;;;4.03;;
7989;SDS011;4040;42.848;23.034;2023-07-02T15:09:23;6.18;;;4.53;;
7989;SDS011;4040;42.848;23.034;2023-07-02T15:15:12;5.10;;;4.25;;
7989;SDS011;4040;42.848;23.034;2023-07-02T15:21:02;7.50;;;4.20;;
7989;SDS011;4040;42.848;23.034;2023-07-02T15:26:52;5.07;;;4.05;;
7989;SDS011;4040;42.848;23.034;2023-07-02T15:32:41;5.35;;;4.25;;
7989;SDS011;4040;42.848;23.034;2023-07-02T15:38:30;7.50;;;4.47;;
7989;SDS011;4040;42.848;23.034;2023-07-02T15:48:42;6.30;;;4.50;;
7989;SDS011;4040;42.848;23.034;2023-07-02T15:54:33;7.03;;;4.82;;
7989;SDS011;4040;42.848;23.034;2023-07-02T16:00:22;6.78;;;4.10;;
7989;SDS011;4040;42.848;23.034;2023-07-02T16:06:12;6.35;;;4.50;;
7989;SDS011;4040;42.848;23.034;2023-07-02T16:12:02;6.90;;;4.70;;
7989;SDS011;4040;42.848;23.034;2023-07-02T16:17:51;7.10;;;4.35;;
7989;SDS011;4040;42.848;23.034;2023-07-02T16:23:41;9.25;;;4.40;;
7989;SDS011;4040;42.848;23.034;2023-07-02T16:29:30;6.00;;;4.53;;
7989;SDS011;4040;42.848;23.034;2023-07-02T16:35:19;6.05;;;4.40;;
7989;SDS011;4040;42.848;23.034;2023-07-02T16:41:10;6.88;;;4.88;;
7989;SDS011;4040;42.848;23.034;2023-07-02T16:51:21;6.53;;;4.65;;
7989;SDS011;4040;42.848;23.034;2023-07-02T16:57:11;7.05;;;5.15;;
7989;SDS011;4040;42.848;23.034;2023-07-02T17:03:00;9.57;;;5.65;;
7989;SDS011;4040;42.848;23.034;2023-07-02T17:08:51;8.20;;;5.53;;
7989;SDS011;4040;42.848;23.034;2023-07-02T17:15:08;8.70;;;5.22;;
7989;SDS011;4040;42.848;23.034;2023-07-02T17:20:57;7.47;;;5.45;;
7989;SDS011;4040;42.848;23.034;2023-07-02T17:26:46;8.55;;;6.50;;
7989;SDS011;4040;42.848;23.034;2023-07-02T17:32:36;7.00;;;5.53;;
7989;SDS011;4040;42.848;23.034;2023-07-02T17:35:04;8.88;;;5.53;;
7989;SDS011;4040;42.848;23.034;2023-07-02T17:41:00;7.63;;;6.03;;
7989;SDS011;4040;42.848;23.034;2023-07-02T17:56:11;9.75;;;6.47;;
7989;SDS011;4040;42.848;23.034;2023-07-02T18:02:00;9.95;;;7.75;;
7989;SDS011;4040;42.848;23.034;2023-07-02T18:07:51;8.77;;;7.20;;
7989;SDS011;4040;42.848;23.034;2023-07-02T18:13:40;13.20;;;7.65;;
7989;SDS011;4040;42.848;23.034;2023-07-02T18:19:28;10.02;;;7.68;;
7989;SDS011;4040;42.848;23.034;2023-07-02T18:25:20;11.27;;;7.65;;
7989;SDS011;4040;42.848;23.034;2023-07-02T18:31:09;9.95;;;7.68;;
7989;SDS011;4040;42.848;23.034;2023-07-02T18:36:57;11.80;;;8.05;;
7989;SDS011;4040;42.848;23.034;2023-07-02T18:42:49;11.68;;;8.75;;
7989;SDS011;4040;42.848;23.034;2023-07-02T18:52:19;9.90;;;7.68;;
7989;SDS011;4040;42.848;23.034;2023-07-02T18:58:10;10.13;;;7.85;;
7989;SDS011;4040;42.848;23.034;2023-07-02T19:03:58;12.02;;;8.13;;
7989;SDS011;4040;42.848;23.034;2023-07-02T19:06:25;10.73;;;7.95;;
7989;SDS011;4040;42.848;23.034;2023-07-02T19:12:14;11.85;;;8.48;;
7989;SDS011;4040;42.848;23.034;2023-07-02T19:18:04;11.10;;;8.90;;
7989;SDS011;4040;42.848;23.034;2023-07-02T19:23:54;12.02;;;8.55;;
7989;SDS011;4040;42.848;23.034;2023-07-02T19:29:47;11.27;;;8.63;;
7989;SDS011;4040;42.848;23.034;2023-07-02T19:35:44;11.95;;;8.77;;
7989;SDS011;4040;42.848;23.034;2023-07-02T19:41:33;11.95;;;9.02;;
7989;SDS011;4040;42.848;23.034;2023-07-02T19:47:22;13.25;;;8.77;;
7989;SDS011;4040;42.848;23.034;2023-07-02T19:49:51;12.95;;;9.13;;
7989;SDS011;4040;42.848;23.034;2023-07-02T19:55:42;12.10;;;8.98;;
7989;SDS011;4040;42.848;23.034;2023-07-02T20:01:30;14.70;;;9.45;;
7989;SDS011;4040;42.848;23.034;2023-07-02T20:07:29;11.40;;;8.68;;
7989;SDS011;4040;42.848;23.034;2023-07-02T20:13:19;13.88;;;9.82;;
7989;SDS011;4040;42.848;23.034;2023-07-02T20:19:08;14.40;;;9.98;;
7989;SDS011;4040;42.848;23.034;2023-07-02T20:24:57;15.90;;;10.50;;
7989;SDS011;4040;42.848;23.034;2023-07-02T20:30:47;15.23;;;9.77;;
7989;SDS011;4040;42.848;23.034;2023-07-02T20:33:14;16.08;;;10.77;;
7989;SDS011;4040;42.848;23.034;2023-07-02T20:35:41;16.30;;;10.82;;
7989;SDS011;4040;42.848;23.034;2023-07-02T20:41:30;15.43;;;10.82;;
7989;SDS011;4040;42.848;23.034;2023-07-02T20:43:57;12.90;;;9.77;;
7989;SDS011;4040;42.848;23.034;2023-07-02T20:49:49;16.60;;;11.07;;
7989;SDS011;4040;42.848;23.034;2023-07-02T20:55:38;13.77;;;10.52;;
7989;SDS011;4040;42.848;23.034;2023-07-02T21:01:27;14.35;;;10.77;;
7989;SDS011;4040;42.848;23.034;2023-07-02T21:07:17;16.83;;;11.48;;
7989;SDS011;4040;42.848;23.034;2023-07-02T21:13:06;13.70;;;9.70;;
7989;SDS011;4040;42.848;23.034;2023-07-02T21:18:56;15.35;;;10.65;;
7989;SDS011;4040;42.848;23.034;2023-07-02T21:24:49;15.10;;;10.93;;
7989;SDS011;4040;42.848;23.034;2023-07-02T21:30:37;16.92;;;12.43;;
7989;SDS011;4040;42.848;23.034;2023-07-02T21:33:05;17.77;;;12.18;;
7989;SDS011;4040;42.848;23.034;2023-07-02T21:38:53;17.20;;;12.18;;
7989;SDS011;4040;42.848;23.034;2023-07-02T21:41:22;19.70;;;12.77;;
7989;SDS011;4040;42.848;23.034;2023-07-02T21:47:12;18.63;;;13.18;;
7989;SDS011;4040;42.848;23.034;2023-07-02T21:57:04;21.33;;;12.15;;
7989;SDS011;4040;42.848;23.034;2023-07-02T22:08:27;17.50;;;13.18;;
7989;SDS011;4040;42.848;23.034;2023-07-02T22:14:16;19.40;;;13.18;;
7989;SDS011;4040;42.848;23.034;2023-07-02T22:20:05;20.27;;;13.05;;
7989;SDS011;4040;42.848;23.034;2023-07-02T22:25:59;17.80;;;13.77;;
7989;SDS011;4040;42.848;23.034;2023-07-02T22:31:48;21.08;;;15.02;;
7989;SDS011;4040;42.848;23.034;2023-07-02T22:37:37;21.73;;;15.32;;
7989;SDS011;4040;42.848;23.034;2023-07-02T22:43:28;21.38;;;15.27;;
7989;SDS011;4040;42.848;23.034;2023-07-02T22:49:17;21.00;;;15.05;;
7989;SDS011;4040;42.848;23.034;2023-07-02T22:55:06;20.73;;;14.48;;
7989;SDS011;4040;42.848;23.034;2023-07-02T23:00:57;18.00;;;13.30;;
7989;SDS011;4040;42.848;23.034;2023-07-02T23:07:16;18.67;;;13.75;;
7989;SDS011;4040;42.848;23.034;2023-07-02T23:13:04;15.20;;;12.32;;
7989;SDS011;4040;42.848;23.034;2023-07-02T23:18:55;15.75;;;12.13;;
7989;SDS011;4040;42.848;23.034;2023-07-02T23:24:43;19.48;;;13.07;;
7989;SDS011;4040;42.848;23.034;2023-07-02T23:27:12;16.98;;;12.88;;
7989;SDS011;4040;42.848;23.034;2023-07-02T23:33:01;18.92;;;12.90;;
7989;SDS011;4040;42.848;23.034;2023-07-02T23:38:53;21.30;;;13.40;;
7989;SDS011;4040;42.848;23.034;2023-07-02T23:44:43;18.13;;;14.20;;
7989;SDS011;4040;42.848;23.034;2023-07-02T23:50:32;20.42;;;15.65;;
7989;SDS011;4040;42.848;23.034;2023-07-02T23:53:00;22.23;;;14.80;;
7989;SDS011;4040;42.848;23.034;2023-07-02T23:55:28;24.00;;;16.83;;
7989;SDS011;4040;42.848;23.034;2023-07-02T23:57:55;21.98;;;16.02;;
